Ana Sayfa
METAR-TAF:

METAR-TAF

Havaalanları :

Phitsanulok, Tayland

Enlem: 16-46-23N, Boylam: 100-16-56E, yükseklik: 47 m

Güncel hava durumu gözlemi

Rapor saat 15:00 UTC de 6 saat ve 9 dakika önce yapıldı.
Sakin rüzgar
Sıcaklık 23°C
Nem 69%
Basınç 1012 hPa
Görüş mesafesi: 6000 m

METAR: VTPP 241500Z 00000KT 6000 NSC 23/17 Q1012 NOSIG

Saat: 04:09 (21:09 UTC)

Tahmin

Rapor saat 17:00 UTC de 4 saat ve 9 dakika önce yapıldı.
Ayın 24'si saat 18 UTC'den ayın 25'si saat 18 UTC'ye kadar geçerli Tahmin
Rüzgar güneydan 5 kt
Görüş mesafesi: 6000 m

TAF: VTPP 241700Z 2418/2518 18005KT 6000 NSC

4.000'den fazla havaalanı için hava durumu gözlemleri ve tahminleri (METAR ve TAF raporları).

Kullanılabilir istasyonlar harita üzerinde sarı ve kırmızı noktalarla gösterilir.

İstasyonun adını görmek için fareyi noktanın üzerinde gezdirin.

Sonrasında hava gözlem ve tahminlerini görmek için tıklayın.

Haritayı değiştirmek için: yaklaştırmak için siyah artı işaretli yeşil düğmeye ve uzaklaştırmak için de eksi işaretli düğmeye hızla tıklayın; bitişik haritalar için yeşil okları kullanın.


METAR-TAF: